Time;durP1;ratioP1;P1;durP2;ratioP2;P2;SDS_P1;SDS_P2;PMS_P1;PMS_P2;Temp;Humidity;BMP_temperature;BMP_pressure;BME280_temperature;BME280_humidity;BME280_pressure;Samples;Min_cycle;Max_cycle;Signal;HPM_P1;HPM_P2
2023/06/30 00:00:55;;;;;;;;;;;;;;;;;;5001893;28;19928;-75
2023/06/30 00:03:45;;;;;;;;;;;;;;;;;;4991711;28;19920;-77
2023/06/30 00:06:31;;;;;;;;;;;;;;;;;;5001588;28;19921;-76
2023/06/30 00:09:18;;;;;;;;;;;;;;;;;;5005257;28;19931;-75
2023/06/30 00:12:05;;;;;;;;;;;;;;;;;;5005099;28;19945;-77
2023/06/30 00:14:51;;;;;;;;;;;;;;;;;;5000168;28;20359;-75
2023/06/30 00:17:38;;;;;;;;;;;;;;;;;;5005176;28;19924;-76
2023/06/30 00:20:24;;;;;;;;;;;;;;;;;;5001248;28;19918;-76
2023/06/30 00:23:11;;;;;;;;;;;;;;;;;;4984679;28;19925;-76
2023/06/30 00:25:57;;;;;;;;;;;;;;;;;;4992218;28;19921;-75
2023/06/30 00:28:44;;;;;;;;;;;;;;;;;;4995445;28;19930;-73
2023/06/30 00:31:31;;;;;;;;;;;;;;;;;;4993674;28;19921;-75
2023/06/30 00:34:17;;;;;;;;;;;;;;;;;;4995595;28;19918;-74
2023/06/30 00:37:04;;;;;;;;;;;;;;;;;;5002870;28;19917;-74
2023/06/30 00:39:50;;;;;;;;;;;;;;;;;;5003091;28;19937;-74
2023/06/30 00:42:37;;;;;;;;;;;;;;;;;;5010440;28;19943;-75
2023/06/30 00:45:23;;;;;;;;;;;;;;;;;;5005552;28;19918;-74
2023/06/30 00:48:10;;;;;;;;;;;;;;;;;;4995507;28;19926;-74
2023/06/30 00:50:56;;;;;;;;;;;;;;;;;;4990896;28;19933;-74
2023/06/30 00:53:43;;;;;;;;;;;;;;;;;;4991009;28;20427;-74
2023/06/30 00:56:29;;;;;;;;;;;;;;;;;;4992969;28;19917;-74
2023/06/30 00:59:16;;;;;;;;;;;;;;;;;;4991607;28;19924;-74
2023/06/30 01:02:02;;;;;;;;;;;;;;;;;;5004208;28;19924;-75
2023/06/30 01:04:49;;;;;;;;;;;;;;;;;;5006365;28;20342;-74
2023/06/30 01:07:35;;;;;;;;;;;;;;;;;;4997467;28;19918;-75
2023/06/30 01:10:22;;;;;;;;;;;;;;;;;;5000066;28;20599;-74
2023/06/30 01:13:08;;;;;;;;;;;;;;;;;;4999475;28;20292;-75
2023/06/30 01:15:54;;;;;;;;;;;;;;;;;;5000056;28;19925;-75
2023/06/30 01:18:41;;;;;;;;;;;;;;;;;;4994745;28;20293;-75
2023/06/30 01:21:28;;;;;;;;;;;;;;;;;;5003178;28;19917;-75
2023/06/30 01:24:15;;;;;;;;;;;;;;;;;;5004960;28;19924;-74
2023/06/30 01:27:02;;;;;;;;;;;;;;;;;;4990655;28;19922;-75
2023/06/30 01:29:48;;;;;;;;;;;;;;;;;;4986239;28;20397;-75
2023/06/30 01:32:35;;;;;;;;;;;;;;;;;;4980944;28;20374;-75
2023/06/30 01:35:21;;;;;;;;;;;;;;;;;;4982195;28;19929;-74
2023/06/30 01:38:07;;;;;;;;;;;;;;;;;;4984750;28;19945;-74
2023/06/30 01:40:54;;;;;;;;;;;;;;;;;;4983586;28;19930;-74
2023/06/30 01:43:40;;;;;;;;;;;;;;;;;;4985051;28;19917;-76
2023/06/30 01:46:27;;;;;;;;;;;;;;;;;;4968931;28;20366;-74
2023/06/30 01:49:13;;;;;;;;;;;;;;;;;;4971090;28;19922;-74
2023/06/30 01:52:00;;;;;;;;;;;;;;;;;;4977046;28;19922;-75
2023/06/30 01:54:46;;;;;;;;;;;;;;;;;;4986150;28;19922;-74
2023/06/30 01:57:33;;;;;;;;;;;;;;;;;;4979496;28;20310;-74
2023/06/30 02:00:19;;;;;;;;;;;;;;;;;;4980620;28;22845;-74
2023/06/30 02:03:06;;;;;;;;;;;;;;;;;;4984555;28;19917;-75
2023/06/30 02:05:52;;;;;;;;;;;;;;;;;;4987812;28;19932;-75
2023/06/30 02:08:39;;;;;;;;;;;;;;;;;;4983665;28;19926;-73
2023/06/30 02:11:25;;;;;;;;;;;;;;;;;;4982773;28;19934;-74
2023/06/30 02:14:15;;;;;;;;;;;;;;;;;;4983325;28;20026;-74
2023/06/30 02:17:06;;;;;;;;;;;;;;;;;;4951585;28;19924;-75
2023/06/30 02:19:53;;;;;;;;;;;;;;;;;;4982640;28;20362;-76
2023/06/30 02:22:39;;;;;;;;;;;;;;;;;;4955266;28;20619;-76
2023/06/30 02:25:26;;;;;;;;;;;;;;;;;;4960963;28;20582;-75
2023/06/30 02:28:12;;;;;;;;;;;;;;;;;;5004863;28;19940;-75
2023/06/30 02:30:59;;;;;;;;;;;;;;;;;;5004621;28;20324;-75
2023/06/30 02:33:45;;;;;;;;;;;;;;;;;;4997531;28;19917;-73
2023/06/30 02:36:32;;;;;;;;;;;;;;;;;;5003736;28;19945;-73
2023/06/30 02:39:18;;;;;;;;;;;;;;;;;;5005959;28;19924;-73
2023/06/30 02:42:05;;;;;;;;;;;;;;;;;;4998225;28;19917;-75
2023/06/30 02:44:51;;;;;;;;;;;;;;;;;;4998258;28;19924;-74
2023/06/30 02:47:40;;;;;;;;;;;;;;;;;;5001915;28;19921;-74
2023/06/30 02:50:34;;;;;;;;;;;;;;;;;;5000453;28;20444;-77
2023/06/30 02:53:23;;;;;;;;;;;;;;;;;;4994870;28;19948;-76
2023/06/30 02:56:13;;;;;;;;;;;;;;;;;;4983880;28;19977;-76
2023/06/30 02:58:59;;;;;;;;;;;;;;;;;;5001952;28;20578;-75
2023/06/30 03:01:46;;;;;;;;;;;;;;;;;;4991558;28;19928;-75
2023/06/30 03:04:32;;;;;;;;;;;;;;;;;;4991862;28;19997;-75
2023/06/30 03:07:19;;;;;;;;;;;;;;;;;;4999188;28;19928;-75
2023/06/30 03:10:05;;;;;;;;;;;;;;;;;;5007932;28;19928;-74
2023/06/30 03:12:52;;;;;;;;;;;;;;;;;;4990733;28;19925;-73
2023/06/30 03:15:38;;;;;;;;;;;;;;;;;;4989649;28;20295;-74
2023/06/30 03:18:25;;;;;;;;;;;;;;;;;;4986525;28;19917;-74
2023/06/30 03:21:11;;;;;;;;;;;;;;;;;;4990946;28;19917;-75
2023/06/30 03:23:58;;;;;;;;;;;;;;;;;;4967579;28;19917;-75
2023/06/30 03:26:45;;;;;;;;;;;;;;;;;;4994752;28;20297;-73
2023/06/30 03:29:31;;;;;;;;;;;;;;;;;;4993763;28;19929;-74
2023/06/30 03:32:18;;;;;;;;;;;;;;;;;;5002748;28;19913;-73
2023/06/30 03:35:08;;;;;;;;;;;;;;;;;;4965912;28;19953;-76
2023/06/30 03:37:57;;;;;;;;;;;;;;;;;;4989887;28;19922;-76
2023/06/30 03:40:46;;;;;;;;;;;;;;;;;;4968039;28;19926;-76
2023/06/30 03:43:33;;;;;;;;;;;;;;;;;;4999784;28;19918;-74
2023/06/30 03:46:19;;;;;;;;;;;;;;;;;;4992541;28;19942;-74
2023/06/30 03:49:06;;;;;;;;;;;;;;;;;;4999164;28;19918;-74
2023/06/30 03:51:52;;;;;;;;;;;;;;;;;;5001437;28;19929;-73
2023/06/30 03:54:38;;;;;;;;;;;;;;;;;;5000655;28;19917;-74
2023/06/30 03:57:25;;;;;;;;;;;;;;;;;;4997530;28;20993;-74
2023/06/30 04:00:12;;;;;;;;;;;;;;;;;;5000133;28;19922;-74
2023/06/30 04:02:59;;;;;;;;;;;;;;;;;;5004239;28;19914;-74
2023/06/30 04:05:45;;;;;;;;;;;;;;;;;;4989562;28;19925;-76
2023/06/30 04:08:36;;;;;;;;;;;;;;;;;;4970748;28;19918;-76
2023/06/30 04:11:22;;;;;;;;;;;;;;;;;;4976955;28;19930;-76
2023/06/30 04:14:09;;;;;;;;;;;;;;;;;;4980626;28;20280;-75
2023/06/30 04:16:56;;;;;;;;;;;;;;;;;;4986843;28;19924;-75
2023/06/30 04:19:42;;;;;;;;;;;;;;;;;;4999605;28;19924;-74
2023/06/30 04:22:29;;;;;;;;;;;;;;;;;;5000932;28;19925;-75
2023/06/30 04:25:15;;;;;;;;;;;;;;;;;;4991625;28;20294;-77
2023/06/30 04:28:02;;;;;;;;;;;;;;;;;;4994877;28;19937;-75
2023/06/30 04:30:48;;;;;;;;;;;;;;;;;;4993458;28;19943;-75
2023/06/30 04:33:35;;;;;;;;;;;;;;;;;;4986002;28;19918;-74
2023/06/30 04:36:21;;;;;;;;;;;;;;;;;;5005338;28;19936;-74
2023/06/30 04:39:08;;;;;;;;;;;;;;;;;;5003999;28;20285;-74
2023/06/30 04:41:54;;;;;;;;;;;;;;;;;;5003386;28;20373;-74
2023/06/30 04:44:41;;;;;;;;;;;;;;;;;;4998702;28;19918;-75
2023/06/30 04:47:30;;;;;;;;;;;;;;;;;;4966942;28;19921;-75
2023/06/30 04:50:21;;;;;;;;;;;;;;;;;;4965460;28;19932;-75
2023/06/30 04:53:07;;;;;;;;;;;;;;;;;;4990567;28;19929;-75
2023/06/30 04:55:54;;;;;;;;;;;;;;;;;;5008151;28;19928;-75
2023/06/30 04:58:40;;;;;;;;;;;;;;;;;;5010098;28;19921;-75
2023/06/30 05:01:27;;;;;;;;;;;;;;;;;;5010571;28;19929;-74
2023/06/30 05:04:14;;;;;;;;;;;;;;;;;;5001876;28;19921;-75
2023/06/30 05:07:00;;;;;;;;;;;;;;;;;;5013194;28;19927;-76
2023/06/30 05:09:47;;;;;;;;;;;;;;;;;;5011422;28;19917;-74
2023/06/30 05:12:33;;;;;;;;;;;;;;;;;;5005000;28;19918;-74
2023/06/30 05:15:20;;;;;;;;;;;;;;;;;;5008218;28;19928;-74
2023/06/30 05:18:06;;;;;;;;;;;;;;;;;;5009651;28;19921;-75
2023/06/30 05:20:53;;;;;;;;;;;;;;;;;;5013456;28;19927;-74
2023/06/30 05:23:39;;;;;;;;;;;;;;;;;;5004119;28;19940;-73
2023/06/30 05:26:26;;;;;;;;;;;;;;;;;;4994606;28;19959;-76
2023/06/30 05:29:12;;;;;;;;;;;;;;;;;;4981713;28;19932;-74
2023/06/30 05:32:01;;;;;;;;;;;;;;;;;;4980000;28;20012;-76
2023/06/30 05:34:50;;;;;;;;;;;;;;;;;;4985964;28;19922;-74
2023/06/30 05:37:36;;;;;;;;;;;;;;;;;;4981097;28;19921;-75
2023/06/30 05:40:23;;;;;;;;;;;;;;;;;;4981684;28;19933;-74
2023/06/30 05:43:09;;;;;;;;;;;;;;;;;;4985472;28;19967;-74
2023/06/30 05:45:59;;;;;;;;;;;;;;;;;;4971221;28;19933;-76
2023/06/30 05:48:45;;;;;;;;;;;;;;;;;;4965848;28;19921;-74
2023/06/30 05:51:33;;;;;;;;;;;;;;;;;;4984428;28;19926;-75
2023/06/30 05:54:19;;;;;;;;;;;;;;;;;;4982306;28;19918;-74
2023/06/30 05:57:06;;;;;;;;;;;;;;;;;;4982568;28;20325;-75
2023/06/30 05:59:55;;;;;;;;;;;;;;;;;;4992839;28;19924;-75
2023/06/30 06:02:41;;;;;;;;;;;;;;;;;;4956542;28;20456;-73
2023/06/30 06:05:28;;;;;;;;;;;;;;;;;;4979287;28;19921;-74
2023/06/30 06:08:14;;;;;;;;;;;;;;;;;;4980733;28;20011;-75
2023/06/30 06:11:01;;;;;;;;;;;;;;;;;;4964277;28;19936;-74
2023/06/30 06:13:47;;;;;;;;;;;;;;;;;;4982405;28;19922;-74
2023/06/30 06:16:34;;;;;;;;;;;;;;;;;;4982837;28;19926;-74
2023/06/30 06:19:20;;;;;;;;;;;;;;;;;;4976942;28;20362;-74
2023/06/30 06:22:07;;;;;;;;;;;;;;;;;;4985282;28;19922;-75
2023/06/30 06:24:53;;;;;;;;;;;;;;;;;;4980711;28;19917;-74
2023/06/30 06:27:40;;;;;;;;;;;;;;;;;;4995547;28;19936;-74
2023/06/30 06:30:26;;;;;;;;;;;;;;;;;;5011241;28;20367;-74
2023/06/30 06:33:13;;;;;;;;;;;;;;;;;;4993202;28;19928;-75
2023/06/30 06:35:59;;;;;;;;;;;;;;;;;;5016301;28;19917;-75
2023/06/30 06:38:46;;;;;;;;;;;;;;;;;;4996649;28;20362;-73
2023/06/30 06:41:32;;;;;;;;;;;;;;;;;;5004397;28;19925;-74
2023/06/30 06:44:19;;;;;;;;;;;;;;;;;;5002606;28;19922;-75
2023/06/30 06:47:05;;;;;;;;;;;;;;;;;;5006217;28;19922;-75
2023/06/30 06:49:52;;;;;;;;;;;;;;;;;;5004750;28;19940;-75
2023/06/30 06:52:38;;;;;;;;;;;;;;;;;;5009507;28;19928;-73
2023/06/30 06:55:25;;;;;;;;;;;;;;;;;;5008837;28;19921;-74
2023/06/30 06:58:11;;;;;;;;;;;;;;;;;;5007932;28;19926;-74
2023/06/30 07:00:58;;;;;;;;;;;;;;;;;;5010244;28;20356;-75
2023/06/30 07:03:44;;;;;;;;;;;;;;;;;;5002054;28;20375;-74
2023/06/30 07:06:31;;;;;;;;;;;;;;;;;;5005421;28;20392;-74
2023/06/30 07:09:17;;;;;;;;;;;;;;;;;;5010648;28;19951;-75
2023/06/30 07:12:03;;;;;;;;;;;;;;;;;;5008645;28;19925;-75
2023/06/30 07:14:50;;;;;;;;;;;;;;;;;;4995126;28;19921;-74
2023/06/30 07:17:37;;;;;;;;;;;;;;;;;;4990636;28;19921;-74
2023/06/30 07:20:23;;;;;;;;;;;;;;;;;;5007946;28;19921;-74
2023/06/30 07:23:10;;;;;;;;;;;;;;;;;;5006871;28;19922;-74
2023/06/30 07:25:56;;;;;;;;;;;;;;;;;;4996910;28;19928;-74
2023/06/30 07:28:43;;;;;;;;;;;;;;;;;;5007911;28;20452;-74
2023/06/30 07:31:31;;;;;;;;;;;;;;;;;;4999024;28;19925;-75
2023/06/30 07:34:19;;;;;;;;;;;;;;;;;;5001322;28;19918;-74
2023/06/30 07:37:07;;;;;;;;;;;;;;;;;;5009622;28;19959;-74
2023/06/30 07:39:54;;;;;;;;;;;;;;;;;;5013771;28;19917;-74
2023/06/30 07:42:40;;;;;;;;;;;;;;;;;;5004715;28;19928;-74
2023/06/30 07:45:27;;;;;;;;;;;;;;;;;;4994390;28;19926;-74
2023/06/30 07:48:13;;;;;;;;;;;;;;;;;;5009418;28;20266;-74
2023/06/30 07:51:00;;;;;;;;;;;;;;;;;;5008377;28;19986;-74
2023/06/30 07:53:46;;;;;;;;;;;;;;;;;;5002101;28;19921;-75
2023/06/30 07:56:33;;;;;;;;;;;;;;;;;;5006206;28;19933;-75
2023/06/30 07:59:19;;;;;;;;;;;;;;;;;;5008878;28;19917;-75
2023/06/30 08:02:06;;;;;;;;;;;;;;;;;;5008783;28;19929;-75
2023/06/30 08:04:52;;;;;;;;;;;;;;;;;;5003134;28;20392;-76
2023/06/30 08:07:39;;;;;;;;;;;;;;;;;;5005403;28;19933;-73
2023/06/30 08:10:25;;;;;;;;;;;;;;;;;;5011681;28;19933;-74
2023/06/30 08:13:12;;;;;;;;;;;;;;;;;;5010546;28;19937;-74
2023/06/30 08:15:58;;;;;;;;;;;;;;;;;;5005093;28;19924;-74
2023/06/30 08:18:44;;;;;;;;;;;;;;;;;;5013971;28;19925;-74
2023/06/30 08:21:31;;;;;;;;;;;;;;;;;;5000396;28;19940;-74
2023/06/30 08:24:17;;;;;;;;;;;;;;;;;;5009119;28;19946;-75
2023/06/30 08:27:05;;;;;;;;;;;;;;;;;;4998900;28;19932;-74
2023/06/30 08:29:51;;;;;;;;;;;;;;;;;;5009388;28;19928;-74
2023/06/30 08:32:38;;;;;;;;;;;;;;;;;;5000522;28;19926;-74
2023/06/30 08:35:24;;;;;;;;;;;;;;;;;;5003705;28;19921;-75
2023/06/30 08:38:11;;;;;;;;;;;;;;;;;;5009595;28;20334;-75
2023/06/30 08:40:58;;;;;;;;;;;;;;;;;;4993691;28;20841;-74
2023/06/30 08:43:44;;;;;;;;;;;;;;;;;;5005260;28;20378;-75
2023/06/30 08:46:31;;;;;;;;;;;;;;;;;;5007094;28;19917;-74
2023/06/30 08:49:17;;;;;;;;;;;;;;;;;;5006671;28;19929;-75
2023/06/30 08:52:04;;;;;;;;;;;;;;;;;;5002804;28;20411;-75
2023/06/30 08:54:50;;;;;;;;;;;;;;;;;;4999460;28;19917;-74
2023/06/30 08:57:37;;;;;;;;;;;;;;;;;;5006414;28;19917;-75
2023/06/30 09:00:24;;;;;;;;;;;;;;;;;;5007713;28;19917;-74
2023/06/30 09:03:10;;;;;;;;;;;;;;;;;;5010034;28;20600;-73
2023/06/30 09:05:57;;;;;;;;;;;;;;;;;;4997069;28;20746;-74
2023/06/30 09:08:43;;;;;;;;;;;;;;;;;;4997063;28;19918;-73
2023/06/30 09:11:30;;;;;;;;;;;;;;;;;;4992141;28;19968;-74
2023/06/30 09:14:17;;;;;;;;;;;;;;;;;;5004276;28;19928;-74
2023/06/30 09:17:03;;;;;;;;;;;;;;;;;;5003704;28;19921;-75
2023/06/30 09:19:50;;;;;;;;;;;;;;;;;;5003991;28;20377;-74
2023/06/30 09:22:37;;;;;;;;;;;;;;;;;;5000850;28;19924;-74
2023/06/30 09:25:23;;;;;;;;;;;;;;;;;;5011058;28;19914;-74
2023/06/30 09:28:10;;;;;;;;;;;;;;;;;;5005562;28;19929;-75
2023/06/30 09:30:57;;;;;;;;;;;;;;;;;;5004291;28;20290;-74
2023/06/30 09:33:47;;;;;;;;;;;;;;;;;;5004467;28;19918;-74
2023/06/30 09:36:33;;;;;;;;;;;;;;;;;;5000875;28;20411;-75
2023/06/30 09:39:20;;;;;;;;;;;;;;;;;;5006955;28;19918;-74
2023/06/30 09:42:06;;;;;;;;;;;;;;;;;;5005173;28;19921;-74
2023/06/30 09:44:53;;;;;;;;;;;;;;;;;;5014276;28;19918;-74
2023/06/30 09:47:39;;;;;;;;;;;;;;;;;;5007241;28;20293;-74
2023/06/30 09:50:26;;;;;;;;;;;;;;;;;;5001323;28;19926;-75
2023/06/30 09:53:12;;;;;;;;;;;;;;;;;;4989191;28;20381;-74
2023/06/30 09:55:59;;;;;;;;;;;;;;;;;;5002984;28;19918;-75
2023/06/30 09:58:46;;;;;;;;;;;;;;;;;;5000483;28;19932;-75
2023/06/30 10:01:32;;;;;;;;;;;;;;;;;;5002259;28;19924;-74
2023/06/30 10:04:18;;;;;;;;;;;;;;;;;;4999304;28;19964;-74
2023/06/30 10:07:05;;;;;;;;;;;;;;;;;;5008241;28;20107;-75
2023/06/30 10:09:52;;;;;;;;;;;;;;;;;;4992858;28;19932;-74
2023/06/30 10:12:38;;;;;;;;;;;;;;;;;;5006790;28;19932;-75
2023/06/30 10:15:25;;;;;;;;;;;;;;;;;;4996039;28;19921;-75
2023/06/30 10:18:11;;;;;;;;;;;;;;;;;;5003265;28;19917;-75
2023/06/30 10:20:58;;;;;;;;;;;;;;;;;;5001807;28;19917;-74
2023/06/30 10:23:44;;;;;;;;;;;;;;;;;;5004652;28;19921;-74
2023/06/30 10:26:31;;;;;;;;;;;;;;;;;;4999376;28;19924;-74
2023/06/30 10:29:19;;;;;;;;;;;;;;;;;;4999153;28;19929;-74
2023/06/30 10:32:06;;;;;;;;;;;;;;;;;;5003434;28;19940;-74
2023/06/30 10:34:52;;;;;;;;;;;;;;;;;;4993896;28;19944;-74
2023/06/30 10:37:39;;;;;;;;;;;;;;;;;;4999227;28;20266;-74
2023/06/30 10:40:25;;;;;;;;;;;;;;;;;;4997247;28;20365;-74
2023/06/30 10:43:13;;;;;;;;;;;;;;;;;;5004108;28;20534;-74
2023/06/30 10:46:00;;;;;;;;;;;;;;;;;;5004531;28;19921;-74
2023/06/30 10:48:46;;;;;;;;;;;;;;;;;;5004595;28;19932;-74
2023/06/30 10:51:33;;;;;;;;;;;;;;;;;;5002274;28;19925;-75
2023/06/30 10:54:19;;;;;;;;;;;;;;;;;;5009844;28;19921;-74
2023/06/30 10:57:06;;;;;;;;;;;;;;;;;;5002205;28;19945;-74
2023/06/30 10:59:52;;;;;;;;;;;;;;;;;;5001840;28;19922;-75
2023/06/30 11:02:38;;;;;;;;;;;;;;;;;;5005205;28;19917;-74
2023/06/30 11:05:25;;;;;;;;;;;;;;;;;;5003362;28;19913;-75
2023/06/30 11:08:12;;;;;;;;;;;;;;;;;;5001057;28;20297;-75
2023/06/30 11:10:58;;;;;;;;;;;;;;;;;;5000874;28;19926;-75
2023/06/30 11:13:47;;;;;;;;;;;;;;;;;;4999697;28;19927;-75
2023/06/30 11:16:33;;;;;;;;;;;;;;;;;;5001893;28;19918;-75
2023/06/30 11:19:20;;;;;;;;;;;;;;;;;;5007289;28;19925;-75
2023/06/30 11:22:06;;;;;;;;;;;;;;;;;;5007803;28;19921;-76
2023/06/30 11:24:53;;;;;;;;;;;;;;;;;;5009845;28;19927;-75
2023/06/30 11:27:39;;;;;;;;;;;;;;;;;;5005429;28;19936;-75
2023/06/30 11:30:26;;;;;;;;;;;;;;;;;;5005525;28;19936;-74
2023/06/30 11:33:13;;;;;;;;;;;;;;;;;;5003899;28;20312;-75
2023/06/30 11:35:59;;;;;;;;;;;;;;;;;;5008732;28;19918;-75
2023/06/30 11:38:46;;;;;;;;;;;;;;;;;;5005143;28;19932;-75
2023/06/30 11:41:33;;;;;;;;;;;;;;;;;;5001914;28;20017;-75
2023/06/30 11:44:20;;;;;;;;;;;;;;;;;;5008726;28;19918;-75
2023/06/30 11:47:06;;;;;;;;;;;;;;;;;;5011715;28;20334;-75
2023/06/30 11:49:53;;;;;;;;;;;;;;;;;;5009046;28;19924;-74
2023/06/30 11:52:39;;;;;;;;;;;;;;;;;;5008579;28;19925;-75
2023/06/30 11:55:27;;;;;;;;;;;;;;;;;;5011853;28;19974;-74
2023/06/30 11:58:14;;;;;;;;;;;;;;;;;;5016719;28;20451;-74
2023/06/30 12:01:03;;;;;;;;;;;;;;;;;;5012188;28;19917;-74
2023/06/30 12:03:50;;;;;;;;;;;;;;;;;;5013420;28;19921;-74
2023/06/30 12:06:36;;;;;;;;;;;;;;;;;;5012566;28;19948;-73
2023/06/30 12:09:23;;;;;;;;;;;;;;;;;;5013502;28;19935;-74
2023/06/30 12:12:09;;;;;;;;;;;;;;;;;;5011353;28;20235;-74
2023/06/30 12:14:56;;;;;;;;;;;;;;;;;;5010014;28;19939;-74
2023/06/30 12:17:43;;;;;;;;;;;;;;;;;;5007402;28;19921;-74
2023/06/30 12:20:29;;;;;;;;;;;;;;;;;;5013398;28;19976;-73
2023/06/30 12:23:16;;;;;;;;;;;;;;;;;;5010536;28;20400;-74
2023/06/30 12:26:04;;;;;;;;;;;;;;;;;;5011831;28;19928;-74
2023/06/30 12:28:50;;;;;;;;;;;;;;;;;;4997473;28;20301;-74
2023/06/30 12:31:37;;;;;;;;;;;;;;;;;;4989657;28;19926;-75
2023/06/30 12:34:23;;;;;;;;;;;;;;;;;;4993431;28;19925;-75
2023/06/30 12:37:11;;;;;;;;;;;;;;;;;;4998972;28;19922;-75
2023/06/30 12:39:58;;;;;;;;;;;;;;;;;;4993198;28;19957;-75
2023/06/30 12:42:45;;;;;;;;;;;;;;;;;;4996611;28;19922;-75
2023/06/30 12:45:31;;;;;;;;;;;;;;;;;;4998289;28;19918;-75
2023/06/30 12:48:18;;;;;;;;;;;;;;;;;;4996680;28;19921;-75
2023/06/30 12:51:04;;;;;;;;;;;;;;;;;;4996302;28;19933;-74
2023/06/30 12:53:51;;;;;;;;;;;;;;;;;;4995160;28;20515;-75
2023/06/30 12:56:38;;;;;;;;;;;;;;;;;;4993418;28;19922;-75
2023/06/30 12:59:25;;;;;;;;;;;;;;;;;;4988806;28;19925;-74
2023/06/30 13:02:11;;;;;;;;;;;;;;;;;;4990571;28;19922;-75
2023/06/30 13:04:58;;;;;;;;;;;;;;;;;;4985169;28;20029;-75
2023/06/30 13:07:44;;;;;;;;;;;;;;;;;;4992173;28;19914;-75
2023/06/30 13:10:31;;;;;;;;;;;;;;;;;;4988774;28;19930;-74
2023/06/30 13:13:17;;;;;;;;;;;;;;;;;;4991159;28;20287;-75
2023/06/30 13:16:04;;;;;;;;;;;;;;;;;;4991807;28;20515;-74
2023/06/30 13:18:50;;;;;;;;;;;;;;;;;;4992411;28;19917;-74
2023/06/30 13:21:37;;;;;;;;;;;;;;;;;;4989814;28;20149;-74
2023/06/30 13:24:23;;;;;;;;;;;;;;;;;;4992322;28;19924;-74
2023/06/30 13:27:10;;;;;;;;;;;;;;;;;;4981932;28;19936;-74
2023/06/30 13:29:56;;;;;;;;;;;;;;;;;;5010854;28;19933;-75
2023/06/30 13:32:43;;;;;;;;;;;;;;;;;;5009406;28;19941;-74
2023/06/30 13:35:30;;;;;;;;;;;;;;;;;;5002594;28;19918;-74
2023/06/30 13:38:18;;;;;;;;;;;;;;;;;;5003642;28;19971;-74
2023/06/30 13:41:04;;;;;;;;;;;;;;;;;;5009680;28;19917;-75
2023/06/30 13:43:50;;;;;;;;;;;;;;;;;;5004857;28;19927;-75
2023/06/30 13:46:37;;;;;;;;;;;;;;;;;;5013280;28;19927;-74
2023/06/30 13:49:23;;;;;;;;;;;;;;;;;;5011405;28;19922;-74
2023/06/30 13:52:10;;;;;;;;;;;;;;;;;;5006808;28;20027;-75
2023/06/30 13:54:56;;;;;;;;;;;;;;;;;;5001366;28;19925;-74
2023/06/30 13:57:43;;;;;;;;;;;;;;;;;;4995098;28;19921;-74
2023/06/30 14:00:30;;;;;;;;;;;;;;;;;;5006042;28;19918;-75
2023/06/30 14:03:16;;;;;;;;;;;;;;;;;;5009631;28;19921;-74
2023/06/30 14:06:03;;;;;;;;;;;;;;;;;;5004313;28;19921;-75
2023/06/30 14:08:49;;;;;;;;;;;;;;;;;;5010667;28;19922;-74
2023/06/30 14:11:36;;;;;;;;;;;;;;;;;;4999394;28;19930;-74
2023/06/30 14:14:22;;;;;;;;;;;;;;;;;;5011511;28;20384;-74
2023/06/30 14:17:09;;;;;;;;;;;;;;;;;;5001835;28;19917;-74
2023/06/30 14:19:55;;;;;;;;;;;;;;;;;;5000716;28;19953;-74
2023/06/30 14:22:42;;;;;;;;;;;;;;;;;;5003418;28;19924;-74
2023/06/30 14:25:28;;;;;;;;;;;;;;;;;;5009846;28;19928;-75
2023/06/30 14:28:15;;;;;;;;;;;;;;;;;;5002512;28;19941;-74
2023/06/30 14:31:01;;;;;;;;;;;;;;;;;;5005997;28;19929;-76
2023/06/30 14:33:48;;;;;;;;;;;;;;;;;;5008085;28;19918;-75
2023/06/30 14:36:34;;;;;;;;;;;;;;;;;;5004605;28;20231;-74
2023/06/30 14:39:21;;;;;;;;;;;;;;;;;;5011128;28;19929;-75
2023/06/30 14:42:07;;;;;;;;;;;;;;;;;;5006868;28;19950;-75
2023/06/30 14:44:54;;;;;;;;;;;;;;;;;;5015128;28;20377;-74
2023/06/30 14:47:41;;;;;;;;;;;;;;;;;;4998508;28;19956;-74
2023/06/30 14:50:27;;;;;;;;;;;;;;;;;;5001691;28;19922;-74
2023/06/30 14:53:14;;;;;;;;;;;;;;;;;;5003776;28;19929;-74
2023/06/30 14:56:00;;;;;;;;;;;;;;;;;;4984629;28;20376;-74
2023/06/30 14:58:49;;;;;;;;;;;;;;;;;;5008257;28;20009;-74
2023/06/30 15:01:36;;;;;;;;;;;;;;;;;;5001212;28;19922;-74
2023/06/30 15:04:22;;;;;;;;;;;;;;;;;;5001515;28;20364;-74
2023/06/30 15:07:09;;;;;;;;;;;;;;;;;;5000088;28;19920;-75
2023/06/30 15:09:55;;;;;;;;;;;;;;;;;;5004734;28;19921;-74
2023/06/30 15:12:42;;;;;;;;;;;;;;;;;;5002658;28;20567;-74
2023/06/30 15:15:29;;;;;;;;;;;;;;;;;;5010143;28;19925;-74
2023/06/30 15:18:16;;;;;;;;;;;;;;;;;;5011091;28;19927;-74
2023/06/30 15:21:03;;;;;;;;;;;;;;;;;;5000189;28;20380;-75
2023/06/30 15:23:49;;;;;;;;;;;;;;;;;;5005453;28;19917;-74
2023/06/30 15:26:36;;;;;;;;;;;;;;;;;;5008365;28;20570;-74
2023/06/30 15:29:25;;;;;;;;;;;;;;;;;;4999235;28;19999;-75
2023/06/30 15:32:12;;;;;;;;;;;;;;;;;;5001393;28;19929;-74
2023/06/30 15:34:58;;;;;;;;;;;;;;;;;;5009292;28;19925;-74
2023/06/30 15:37:44;;;;;;;;;;;;;;;;;;5005396;28;19917;-74
2023/06/30 15:40:32;;;;;;;;;;;;;;;;;;5001322;28;19922;-74
2023/06/30 15:43:19;;;;;;;;;;;;;;;;;;4989901;28;19921;-75
2023/06/30 15:46:05;;;;;;;;;;;;;;;;;;5004282;28;19929;-75
2023/06/30 15:48:52;;;;;;;;;;;;;;;;;;5008397;28;19918;-75
2023/06/30 15:51:38;;;;;;;;;;;;;;;;;;5011553;28;19967;-75
2023/06/30 15:54:25;;;;;;;;;;;;;;;;;;5003665;28;19943;-75
2023/06/30 15:57:11;;;;;;;;;;;;;;;;;;5001278;28;19924;-75
2023/06/30 15:59:58;;;;;;;;;;;;;;;;;;5002215;28;19928;-75
2023/06/30 16:02:44;;;;;;;;;;;;;;;;;;5012592;28;19932;-75
2023/06/30 16:05:31;;;;;;;;;;;;;;;;;;5008748;28;19956;-76
2023/06/30 16:08:17;;;;;;;;;;;;;;;;;;5008372;28;19922;-75
2023/06/30 16:11:04;;;;;;;;;;;;;;;;;;5001876;28;19925;-76
2023/06/30 16:13:50;;;;;;;;;;;;;;;;;;4996005;28;19918;-75
2023/06/30 16:16:37;;;;;;;;;;;;;;;;;;5000738;28;19924;-75
2023/06/30 16:19:23;;;;;;;;;;;;;;;;;;5001212;28;19917;-74
2023/06/30 16:22:10;;;;;;;;;;;;;;;;;;5000738;28;20314;-74
2023/06/30 16:24:56;;;;;;;;;;;;;;;;;;5011253;28;19928;-74
2023/06/30 16:27:43;;;;;;;;;;;;;;;;;;4998221;28;19933;-74
2023/06/30 16:30:29;;;;;;;;;;;;;;;;;;4996487;28;20012;-75
2023/06/30 16:33:16;;;;;;;;;;;;;;;;;;5003183;28;19936;-75
2023/06/30 16:36:02;;;;;;;;;;;;;;;;;;5008818;28;19968;-75
2023/06/30 16:38:51;;;;;;;;;;;;;;;;;;5005980;28;20387;-74
2023/06/30 16:41:37;;;;;;;;;;;;;;;;;;5004318;28;20296;-73
2023/06/30 16:44:24;;;;;;;;;;;;;;;;;;5003446;28;19921;-75
2023/06/30 16:47:10;;;;;;;;;;;;;;;;;;5011187;28;19921;-75
2023/06/30 16:49:57;;;;;;;;;;;;;;;;;;5001277;28;19926;-75
2023/06/30 16:52:43;;;;;;;;;;;;;;;;;;5012313;28;19968;-75
2023/06/30 16:55:30;;;;;;;;;;;;;;;;;;5004802;28;19924;-75
2023/06/30 16:58:17;;;;;;;;;;;;;;;;;;5005751;28;20280;-75
2023/06/30 17:01:03;;;;;;;;;;;;;;;;;;5000797;28;19918;-75
2023/06/30 17:03:50;;;;;;;;;;;;;;;;;;5014262;28;19921;-73
2023/06/30 17:06:36;;;;;;;;;;;;;;;;;;4999505;28;20415;-74
2023/06/30 17:09:23;;;;;;;;;;;;;;;;;;5013504;28;19921;-75
2023/06/30 17:12:10;;;;;;;;;;;;;;;;;;5000510;28;19933;-75
2023/06/30 17:14:56;;;;;;;;;;;;;;;;;;5008222;28;19929;-75
2023/06/30 17:17:43;;;;;;;;;;;;;;;;;;4995730;28;19917;-74
2023/06/30 17:20:29;;;;;;;;;;;;;;;;;;5003323;28;20365;-74
2023/06/30 17:23:16;;;;;;;;;;;;;;;;;;5012297;28;19921;-74
2023/06/30 17:26:02;;;;;;;;;;;;;;;;;;5008765;28;20562;-75
2023/06/30 17:28:49;;;;;;;;;;;;;;;;;;5008000;28;19936;-74
2023/06/30 17:31:35;;;;;;;;;;;;;;;;;;5010333;28;20245;-74
2023/06/30 17:34:22;;;;;;;;;;;;;;;;;;5014049;28;19921;-74
2023/06/30 17:37:08;;;;;;;;;;;;;;;;;;5009737;28;19917;-74
2023/06/30 17:39:55;;;;;;;;;;;;;;;;;;5002523;28;20369;-75
2023/06/30 17:42:41;;;;;;;;;;;;;;;;;;4996610;28;19918;-74
2023/06/30 17:45:27;;;;;;;;;;;;;;;;;;5006593;28;19928;-74
2023/06/30 17:48:14;;;;;;;;;;;;;;;;;;5000055;28;20442;-74
2023/06/30 17:51:00;;;;;;;;;;;;;;;;;;5006713;28;19925;-74
2023/06/30 17:53:47;;;;;;;;;;;;;;;;;;5002727;28;20147;-74
2023/06/30 17:56:33;;;;;;;;;;;;;;;;;;5017106;28;20377;-74
2023/06/30 17:59:20;;;;;;;;;;;;;;;;;;5006087;28;19918;-74
2023/06/30 18:02:06;;;;;;;;;;;;;;;;;;5008948;28;19929;-74
2023/06/30 18:04:53;;;;;;;;;;;;;;;;;;5005930;28;19921;-73
2023/06/30 18:07:39;;;;;;;;;;;;;;;;;;4997377;28;19933;-74
2023/06/30 18:10:26;;;;;;;;;;;;;;;;;;5002294;28;19929;-74
2023/06/30 18:13:12;;;;;;;;;;;;;;;;;;5009931;28;19951;-74
2023/06/30 18:15:59;;;;;;;;;;;;;;;;;;5007331;28;19918;-75
2023/06/30 18:18:45;;;;;;;;;;;;;;;;;;5008065;28;19917;-74
2023/06/30 18:21:32;;;;;;;;;;;;;;;;;;5010954;28;19918;-74
2023/06/30 18:24:19;;;;;;;;;;;;;;;;;;5002830;28;20585;-74
2023/06/30 18:27:05;;;;;;;;;;;;;;;;;;5015410;28;19922;-75
2023/06/30 18:29:52;;;;;;;;;;;;;;;;;;4995527;28;19933;-74
2023/06/30 18:32:38;;;;;;;;;;;;;;;;;;4995953;28;19929;-75
2023/06/30 18:35:25;;;;;;;;;;;;;;;;;;4996584;28;19928;-74
2023/06/30 18:38:11;;;;;;;;;;;;;;;;;;5000862;28;19918;-74
2023/06/30 18:40:58;;;;;;;;;;;;;;;;;;5004612;28;19947;-74
2023/06/30 18:43:44;;;;;;;;;;;;;;;;;;5001261;28;19941;-75
2023/06/30 18:46:31;;;;;;;;;;;;;;;;;;5000783;28;19929;-74
2023/06/30 18:49:19;;;;;;;;;;;;;;;;;;5003880;28;19921;-74
2023/06/30 18:52:07;;;;;;;;;;;;;;;;;;5001050;28;19921;-74
2023/06/30 18:54:53;;;;;;;;;;;;;;;;;;4996581;28;19918;-75
2023/06/30 18:57:40;;;;;;;;;;;;;;;;;;5005554;28;19919;-75